createdAt,value
2023-05-13T00:00:38.114Z,100.00
2023-05-13T00:01:41.892Z,100.00
2023-05-13T00:02:44.734Z,100.00
2023-05-13T00:03:47.681Z,100.00
2023-05-13T00:04:50.628Z,100.00
2023-05-13T00:05:53.382Z,100.00
2023-05-13T00:06:56.202Z,100.00
2023-05-13T00:08:02.211Z,100.00
2023-05-13T00:09:05.043Z,100.00
2023-05-13T00:10:08.240Z,100.00
2023-05-13T00:11:11.092Z,100.00
2023-05-13T00:12:13.779Z,100.00
2023-05-13T00:13:16.631Z,100.00
2023-05-13T00:14:19.360Z,100.00
2023-05-13T00:15:22.162Z,100.00
2023-05-13T00:16:27.963Z,100.00
2023-05-13T00:17:30.664Z,100.00
2023-05-13T00:18:33.433Z,100.00
2023-05-13T00:19:36.455Z,100.00
2023-05-13T00:20:39.178Z,100.00
2023-05-13T00:21:42.140Z,100.00
2023-05-13T00:22:44.908Z,100.00
2023-05-13T00:23:47.941Z,100.00
2023-05-13T00:24:50.808Z,100.00
2023-05-13T00:25:53.438Z,100.00
2023-05-13T00:26:56.346Z,100.00
2023-05-13T00:27:58.981Z,100.00
2023-05-13T00:29:01.733Z,100.00
2023-05-13T00:30:05.883Z,100.00
2023-05-13T00:31:10.263Z,100.00
2023-05-13T00:32:12.993Z,100.00
2023-05-13T00:33:16.064Z,100.00
2023-05-13T00:34:19.562Z,100.00
2023-05-13T00:35:22.910Z,100.00
2023-05-13T00:36:27.719Z,100.00
2023-05-13T00:37:30.657Z,100.00
2023-05-13T00:38:33.601Z,100.00
2023-05-13T00:39:36.535Z,100.00
2023-05-13T00:40:39.803Z,100.00
2023-05-13T00:41:42.525Z,100.00
2023-05-13T00:42:45.238Z,100.00
2023-05-13T00:43:48.047Z,100.00
2023-05-13T00:44:52.979Z,100.00
2023-05-13T00:45:55.905Z,100.00
2023-05-13T00:46:59.363Z,100.00
2023-05-13T00:48:02.259Z,100.00
2023-05-13T00:49:05.455Z,100.00
2023-05-13T00:50:10.405Z,100.00
2023-05-13T00:51:13.223Z,100.00
2023-05-13T00:52:16.139Z,100.00
2023-05-13T00:53:19.053Z,100.00
2023-05-13T00:54:21.856Z,100.00
2023-05-13T00:55:24.739Z,100.00
2023-05-13T00:56:27.581Z,100.00
2023-05-13T00:57:31.019Z,100.00
2023-05-13T00:58:33.679Z,100.00
2023-05-13T00:59:36.344Z,100.00
2023-05-13T01:01:00.353Z,100.00
2023-05-13T01:02:07.262Z,100.00
2023-05-13T01:03:17.977Z,100.00
2023-05-13T01:04:37.805Z,100.00
2023-05-13T01:06:00.302Z,100.00
2023-05-13T01:07:21.894Z,100.00
2023-05-13T01:08:53.423Z,100.00
2023-05-13T01:10:11.852Z,100.00
2023-05-13T01:11:28.831Z,100.00
2023-05-13T01:12:35.446Z,100.00
2023-05-13T01:13:43.376Z,100.00
2023-05-13T01:14:59.508Z,100.00
2023-05-13T01:16:10.363Z,100.00
2023-05-13T01:17:26.482Z,100.00
2023-05-13T01:18:36.553Z,100.00
2023-05-13T01:19:42.125Z,100.00
2023-05-13T01:20:46.017Z,100.00
2023-05-13T01:21:55.502Z,100.00
2023-05-13T01:22:58.289Z,100.00
2023-05-13T01:24:01.418Z,100.00
2023-05-13T01:25:04.370Z,100.00
2023-05-13T01:26:07.537Z,100.00
2023-05-13T01:27:10.436Z,100.00
2023-05-13T01:28:13.544Z,100.00
2023-05-13T01:29:17.012Z,100.00
2023-05-13T01:30:20.874Z,100.00
2023-05-13T01:31:24.616Z,100.00
2023-05-13T01:32:27.504Z,100.00
2023-05-13T01:33:31.269Z,100.00
2023-05-13T01:34:35.126Z,100.00
2023-05-13T01:35:38.209Z,100.00
2023-05-13T01:36:41.166Z,100.00
2023-05-13T01:37:44.186Z,100.00
2023-05-13T01:38:47.964Z,100.00
2023-05-13T01:39:51.818Z,100.00
2023-05-13T01:40:56.664Z,100.00
2023-05-13T01:41:59.476Z,100.00
2023-05-13T01:43:02.225Z,100.00
2023-05-13T01:44:05.097Z,100.00
2023-05-13T01:45:08.498Z,100.00
2023-05-13T01:46:14.607Z,100.00
2023-05-13T01:47:17.410Z,100.00
2023-05-13T01:48:20.200Z,100.00
2023-05-13T01:49:22.981Z,100.00
2023-05-13T01:50:26.439Z,100.00
2023-05-13T01:51:29.109Z,100.00
2023-05-13T01:52:31.788Z,100.00
2023-05-13T01:53:34.532Z,100.00
2023-05-13T01:54:37.294Z,100.00
2023-05-13T01:55:40.016Z,100.00
2023-05-13T01:56:42.885Z,100.00
2023-05-13T01:57:45.604Z,100.00
2023-05-13T01:58:48.507Z,100.00
2023-05-13T01:59:51.538Z,100.00
2023-05-13T02:00:54.453Z,100.00
2023-05-13T02:01:57.174Z,100.00
2023-05-13T02:03:00.114Z,100.00
2023-05-13T02:04:03.229Z,100.00
2023-05-13T02:05:06.094Z,100.00
2023-05-13T02:06:08.782Z,100.00
2023-05-13T02:07:11.495Z,100.00
2023-05-13T02:08:14.137Z,100.00
2023-05-13T02:09:16.890Z,100.00
2023-05-13T02:10:19.625Z,100.00
2023-05-13T02:11:22.806Z,100.00
2023-05-13T02:12:29.056Z,100.00
2023-05-13T02:13:31.875Z,100.00
2023-05-13T02:14:34.521Z,100.00
2023-05-13T02:15:37.505Z,100.00
2023-05-13T02:16:40.683Z,100.00
2023-05-13T02:17:43.679Z,100.00
2023-05-13T02:18:46.555Z,100.00
2023-05-13T02:19:49.312Z,100.00
2023-05-13T02:20:52.186Z,100.00
2023-05-13T02:21:54.970Z,100.00
2023-05-13T02:22:57.972Z,100.00
2023-05-13T02:24:01.133Z,100.00
2023-05-13T02:25:04.800Z,100.00
2023-05-13T02:26:07.679Z,100.00
2023-05-13T02:27:12.986Z,100.00
2023-05-13T02:28:15.729Z,100.00
2023-05-13T02:29:18.601Z,100.00
2023-05-13T02:30:22.290Z,100.00
2023-05-13T02:31:25.482Z,100.00
2023-05-13T02:32:28.419Z,100.00
2023-05-13T02:33:31.259Z,100.00
2023-05-13T02:34:34.228Z,100.00
2023-05-13T02:35:36.908Z,100.00
2023-05-13T02:36:39.540Z,100.00
2023-05-13T02:37:42.250Z,100.00
2023-05-13T02:38:44.910Z,100.00
2023-05-13T02:39:47.707Z,100.00
2023-05-13T02:40:50.453Z,100.00
2023-05-13T02:41:53.293Z,100.00
2023-05-13T02:42:56.028Z,100.00
2023-05-13T02:43:58.817Z,100.00
2023-05-13T02:45:01.663Z,100.00
2023-05-13T02:46:04.366Z,100.00
2023-05-13T02:47:07.238Z,100.00
2023-05-13T02:48:11.324Z,100.00
2023-05-13T02:49:14.284Z,100.00
2023-05-13T02:50:16.984Z,100.00
2023-05-13T02:51:19.725Z,100.00
2023-05-13T02:52:22.632Z,100.00
2023-05-13T02:53:25.355Z,100.00
2023-05-13T02:54:28.539Z,100.00
2023-05-13T02:55:31.469Z,100.00
2023-05-13T02:56:34.387Z,100.00
2023-05-13T02:57:37.983Z,100.00
2023-05-13T02:58:40.733Z,100.00
2023-05-13T02:59:43.510Z,100.00
2023-05-13T03:00:46.257Z,100.00
2023-05-13T03:01:49.527Z,100.00
2023-05-13T03:02:52.331Z,100.00
2023-05-13T03:03:55.075Z,100.00
2023-05-13T03:04:58.282Z,100.00
2023-05-13T03:06:01.034Z,100.00
2023-05-13T03:07:03.716Z,100.00
2023-05-13T03:08:06.428Z,100.00
2023-05-13T03:09:09.056Z,100.00
2023-05-13T03:10:11.772Z,100.00
2023-05-13T03:11:14.640Z,100.00
2023-05-13T03:12:17.904Z,100.00
2023-05-13T03:13:20.615Z,100.00
2023-05-13T03:14:23.530Z,100.00
2023-05-13T03:15:26.936Z,100.00
2023-05-13T03:16:29.748Z,100.00
2023-05-13T03:17:33.679Z,100.00
2023-05-13T03:18:36.457Z,100.00
2023-05-13T03:19:39.504Z,100.00
2023-05-13T03:20:42.129Z,100.00
2023-05-13T03:21:44.720Z,100.00
2023-05-13T03:22:47.458Z,100.00
2023-05-13T03:23:50.182Z,100.00
2023-05-13T03:24:52.975Z,100.00
2023-05-13T03:25:55.847Z,100.00
2023-05-13T03:26:58.971Z,100.00
2023-05-13T03:28:04.303Z,100.00
2023-05-13T03:29:06.922Z,100.00
2023-05-13T03:30:10.100Z,100.00
2023-05-13T03:31:13.279Z,100.00
2023-05-13T03:32:16.104Z,100.00
2023-05-13T03:33:18.774Z,100.00
2023-05-13T03:34:21.560Z,100.00
2023-05-13T03:35:24.274Z,100.00
2023-05-13T03:36:27.030Z,100.00
2023-05-13T03:37:29.788Z,100.00
2023-05-13T03:38:32.680Z,100.00
2023-05-13T03:39:35.421Z,100.00
2023-05-13T03:40:38.270Z,100.00
2023-05-13T03:41:41.007Z,100.00
2023-05-13T03:42:43.696Z,100.00
2023-05-13T03:43:46.693Z,100.00
2023-05-13T03:44:50.694Z,100.00
2023-05-13T03:45:53.535Z,100.00
2023-05-13T03:46:56.230Z,100.00
2023-05-13T03:47:59.180Z,100.00
2023-05-13T03:49:01.920Z,100.00
2023-05-13T03:50:04.774Z,100.00
2023-05-13T03:51:07.443Z,100.00
2023-05-13T03:52:10.150Z,100.00
2023-05-13T03:53:12.865Z,100.00
2023-05-13T03:54:15.515Z,100.00
2023-05-13T03:55:18.293Z,100.00
2023-05-13T03:56:21.849Z,100.00
2023-05-13T03:57:24.561Z,100.00
2023-05-13T03:58:27.254Z,100.00
2023-05-13T03:59:29.970Z,100.00
2023-05-13T04:00:32.664Z,100.00
2023-05-13T04:01:36.158Z,100.00
2023-05-13T04:02:39.116Z,100.00
2023-05-13T04:03:44.722Z,100.00
2023-05-13T04:04:47.752Z,100.00
2023-05-13T04:05:52.016Z,100.00
2023-05-13T04:06:54.712Z,100.00
2023-05-13T04:07:57.550Z,100.00
2023-05-13T04:09:01.378Z,100.00
2023-05-13T04:10:04.371Z,100.00
2023-05-13T04:11:07.157Z,100.00
2023-05-13T04:12:09.819Z,100.00
2023-05-13T04:13:12.465Z,100.00
2023-05-13T04:14:15.134Z,100.00
2023-05-13T04:15:17.891Z,100.00
2023-05-13T04:16:21.540Z,100.00
2023-05-13T04:17:24.394Z,100.00
2023-05-13T04:18:27.115Z,100.00
2023-05-13T04:19:29.895Z,100.00
2023-05-13T04:20:32.497Z,100.00
2023-05-13T04:21:35.122Z,100.00
2023-05-13T04:22:37.788Z,100.00
2023-05-13T04:23:40.532Z,100.00
2023-05-13T04:24:43.197Z,100.00
2023-05-13T04:25:53.851Z,100.00
2023-05-13T04:26:56.655Z,100.00
2023-05-13T04:27:59.289Z,100.00
2023-05-13T04:29:01.980Z,100.00
2023-05-13T04:30:05.266Z,100.00
2023-05-13T04:31:08.155Z,100.00
2023-05-13T04:32:10.985Z,100.00
2023-05-13T04:33:13.779Z,100.00
2023-05-13T04:34:16.623Z,100.00
2023-05-13T04:35:19.678Z,100.00
2023-05-13T04:36:22.350Z,100.00
2023-05-13T04:37:25.218Z,100.00
2023-05-13T04:38:27.966Z,100.00
2023-05-13T04:39:30.780Z,100.00
2023-05-13T04:40:33.545Z,100.00
2023-05-13T04:41:36.400Z,100.00
2023-05-13T04:42:39.045Z,100.00
2023-05-13T04:43:41.663Z,100.00
2023-05-13T04:44:44.367Z,100.00
2023-05-13T04:45:49.867Z,100.00
2023-05-13T04:46:52.853Z,100.00
2023-05-13T04:47:58.222Z,100.00
2023-05-13T04:49:01.545Z,100.00
2023-05-13T04:50:04.800Z,100.00
2023-05-13T04:51:07.893Z,100.00
2023-05-13T04:52:13.300Z,100.00
2023-05-13T04:53:16.082Z,100.00
2023-05-13T04:54:18.706Z,100.00
2023-05-13T04:55:21.961Z,100.00
2023-05-13T04:56:25.675Z,100.00
2023-05-13T04:57:28.388Z,100.00
2023-05-13T04:58:31.187Z,100.00
2023-05-13T04:59:34.324Z,100.00
2023-05-13T05:00:37.228Z,100.00
2023-05-13T05:01:39.991Z,100.00
2023-05-13T05:02:42.827Z,100.00
2023-05-13T05:03:45.611Z,100.00
2023-05-13T05:04:49.612Z,100.00
2023-05-13T05:05:52.326Z,100.00
2023-05-13T05:06:55.182Z,100.00
2023-05-13T05:07:58.000Z,100.00
2023-05-13T05:09:00.838Z,100.00
2023-05-13T05:10:03.616Z,100.00
2023-05-13T05:11:06.472Z,100.00
2023-05-13T05:12:09.268Z,100.00
2023-05-13T05:13:11.995Z,100.00
2023-05-13T05:14:14.772Z,100.00
2023-05-13T05:15:17.461Z,100.00
2023-05-13T05:16:20.211Z,100.00
2023-05-13T05:17:23.026Z,100.00
2023-05-13T05:18:25.849Z,100.00
2023-05-13T05:19:28.797Z,100.00
2023-05-13T05:20:31.520Z,100.00
2023-05-13T05:21:34.276Z,100.00
2023-05-13T05:22:38.548Z,100.00
2023-05-13T05:23:41.483Z,100.00
2023-05-13T05:24:44.268Z,100.00
2023-05-13T05:25:48.546Z,100.00
2023-05-13T05:26:52.411Z,100.00
2023-05-13T05:27:55.156Z,100.00
2023-05-13T05:28:57.842Z,100.00
2023-05-13T05:30:00.628Z,100.00
2023-05-13T05:31:03.562Z,100.00
2023-05-13T05:32:06.801Z,100.00
2023-05-13T05:33:09.597Z,100.00
2023-05-13T05:34:12.360Z,100.00
2023-05-13T05:35:17.281Z,100.00
2023-05-13T05:36:20.792Z,100.00
2023-05-13T05:37:23.462Z,100.00
2023-05-13T05:38:26.227Z,100.00
2023-05-13T05:39:29.027Z,100.00
2023-05-13T05:40:33.066Z,100.00
2023-05-13T05:41:35.991Z,100.00
2023-05-13T05:42:38.818Z,100.00
2023-05-13T05:43:41.436Z,100.00
2023-05-13T05:44:44.197Z,100.00
2023-05-13T05:45:47.068Z,100.00
2023-05-13T05:46:49.916Z,100.00
2023-05-13T05:47:54.340Z,100.00
2023-05-13T05:48:57.094Z,100.00
2023-05-13T05:50:00.200Z,100.00
2023-05-13T05:51:03.002Z,100.00
2023-05-13T05:52:06.115Z,100.00
2023-05-13T05:53:08.928Z,100.00
2023-05-13T05:54:11.597Z,100.00
2023-05-13T05:55:14.467Z,100.00
2023-05-13T05:56:17.431Z,100.00
2023-05-13T05:57:20.123Z,100.00
2023-05-13T05:58:22.945Z,100.00
2023-05-13T05:59:25.864Z,100.00
2023-05-13T06:00:28.622Z,100.00
2023-05-13T06:01:37.134Z,100.00
2023-05-13T06:02:40.187Z,100.00
2023-05-13T06:03:43.087Z,100.00
2023-05-13T06:04:46.074Z,100.00
2023-05-13T06:05:49.011Z,100.00
2023-05-13T06:06:51.909Z,100.00
2023-05-13T06:07:54.569Z,100.00
2023-05-13T06:08:57.306Z,100.00
2023-05-13T06:10:00.048Z,100.00
2023-05-13T06:11:02.979Z,100.00
2023-05-13T06:12:05.986Z,100.00
2023-05-13T06:13:08.929Z,100.00
2023-05-13T06:14:11.703Z,100.00
2023-05-13T06:15:14.455Z,100.00
2023-05-13T06:16:17.584Z,100.00
2023-05-13T06:17:20.435Z,100.00
2023-05-13T06:18:23.289Z,100.00
2023-05-13T06:19:26.110Z,100.00
2023-05-13T06:20:28.822Z,100.00
2023-05-13T06:21:32.262Z,100.00
2023-05-13T06:22:35.177Z,100.00
2023-05-13T06:23:38.101Z,100.00
2023-05-13T06:24:42.828Z,100.00
2023-05-13T06:25:45.493Z,100.00
2023-05-13T06:26:48.164Z,100.00
2023-05-13T06:27:50.939Z,100.00
2023-05-13T06:28:53.564Z,100.00
2023-05-13T06:29:56.355Z,100.00
2023-05-13T06:30:59.021Z,99.73
2023-05-13T06:32:01.788Z,100.00
2023-05-13T06:33:04.809Z,100.00
2023-05-13T06:34:07.554Z,100.00
2023-05-13T06:35:10.491Z,100.00
2023-05-13T06:36:13.392Z,100.00
2023-05-13T06:37:16.083Z,100.00
2023-05-13T06:38:18.949Z,100.00
2023-05-13T06:39:21.756Z,100.00
2023-05-13T06:40:24.778Z,100.00
2023-05-13T06:41:27.553Z,100.00
2023-05-13T06:42:30.214Z,100.00
2023-05-13T06:43:32.875Z,99.62
2023-05-13T06:44:35.754Z,98.94
2023-05-13T06:45:38.962Z,99.08
2023-05-13T06:46:41.733Z,99.94
2023-05-13T06:47:44.487Z,100.00
2023-05-13T06:48:47.136Z,100.00
2023-05-13T06:49:49.726Z,100.00
2023-05-13T06:50:52.512Z,99.81
2023-05-13T06:51:55.159Z,99.99
2023-05-13T06:52:58.844Z,99.51
2023-05-13T06:54:01.457Z,100.00
2023-05-13T06:55:04.508Z,100.00
2023-05-13T06:56:07.553Z,100.00
2023-05-13T06:57:10.387Z,99.72
2023-05-13T06:58:13.308Z,98.31
2023-05-13T06:59:16.628Z,97.54
2023-05-13T07:00:19.500Z,97.77
2023-05-13T07:01:22.351Z,98.45
2023-05-13T07:02:25.133Z,98.33
2023-05-13T07:03:27.980Z,97.89
2023-05-13T07:04:30.762Z,98.20
2023-05-13T07:05:34.458Z,98.30
2023-05-13T07:06:37.148Z,98.77
2023-05-13T07:07:39.946Z,98.97
2023-05-13T07:08:42.670Z,99.28
2023-05-13T07:09:45.379Z,99.71
2023-05-13T07:10:48.100Z,100.00
2023-05-13T07:11:50.987Z,100.00
2023-05-13T07:12:53.694Z,100.00
2023-05-13T07:13:56.390Z,99.59
2023-05-13T07:14:58.996Z,99.60
2023-05-13T07:16:02.568Z,99.95
2023-05-13T07:17:05.519Z,99.90
2023-05-13T07:18:09.081Z,100.00
2023-05-13T07:19:11.840Z,100.00
2023-05-13T07:20:14.763Z,100.00
2023-05-13T07:21:17.380Z,100.00
2023-05-13T07:22:20.062Z,100.00
2023-05-13T07:23:23.902Z,100.00
2023-05-13T07:24:26.734Z,100.00
2023-05-13T07:25:29.534Z,100.00
2023-05-13T07:26:32.581Z,99.21
2023-05-13T07:27:35.332Z,99.33
2023-05-13T07:28:38.128Z,99.98
2023-05-13T07:29:40.886Z,100.00
2023-05-13T07:30:43.573Z,100.00
2023-05-13T07:31:46.193Z,100.00
2023-05-13T07:32:49.032Z,100.00
2023-05-13T07:33:51.932Z,100.00
2023-05-13T07:34:54.655Z,100.00
2023-05-13T07:35:57.625Z,100.00
2023-05-13T07:37:00.541Z,100.00
2023-05-13T07:38:04.444Z,100.00
2023-05-13T07:39:08.921Z,99.94
2023-05-13T07:40:13.464Z,99.68
2023-05-13T07:41:16.273Z,99.19
2023-05-13T07:42:19.381Z,99.27
2023-05-13T07:43:24.209Z,98.60
2023-05-13T07:44:27.187Z,98.36
2023-05-13T07:45:30.103Z,96.70
2023-05-13T07:46:33.030Z,97.27
2023-05-13T07:47:36.062Z,96.07
2023-05-13T07:48:38.826Z,95.74
2023-05-13T07:49:41.465Z,95.30
2023-05-13T07:50:45.522Z,94.67
2023-05-13T07:51:48.217Z,95.14
2023-05-13T07:52:51.991Z,95.40
2023-05-13T07:53:54.667Z,95.51
2023-05-13T07:54:57.595Z,95.87
2023-05-13T07:56:00.225Z,96.23
2023-05-13T07:57:04.166Z,96.26
2023-05-13T07:58:06.840Z,96.05
2023-05-13T07:59:09.602Z,96.30
2023-05-13T08:00:12.603Z,96.94
2023-05-13T08:01:15.591Z,97.00
2023-05-13T08:02:18.332Z,96.81
2023-05-13T08:03:21.154Z,96.40
2023-05-13T08:04:24.171Z,96.99
2023-05-13T08:05:27.157Z,97.28
2023-05-13T08:06:30.149Z,97.08
2023-05-13T08:07:32.990Z,97.32
2023-05-13T08:08:36.029Z,97.01
2023-05-13T08:09:38.908Z,97.62
2023-05-13T08:10:41.608Z,98.17
2023-05-13T08:11:44.636Z,98.50
2023-05-13T08:12:52.435Z,98.42
2023-05-13T08:13:55.234Z,98.38
2023-05-13T08:14:57.913Z,98.30
2023-05-13T08:16:02.877Z,98.00
2023-05-13T08:17:07.775Z,97.51
2023-05-13T08:18:10.610Z,97.52
2023-05-13T08:19:17.147Z,97.35
2023-05-13T08:20:20.813Z,97.28
2023-05-13T08:21:23.958Z,96.97
2023-05-13T08:22:26.708Z,97.13
2023-05-13T08:23:43.304Z,97.20
2023-05-13T08:24:47.024Z,97.44
2023-05-13T08:25:49.694Z,97.59
2023-05-13T08:26:52.356Z,98.38
2023-05-13T08:27:55.069Z,98.38
2023-05-13T08:28:58.135Z,97.77
2023-05-13T08:30:00.830Z,98.03
2023-05-13T08:31:03.949Z,97.20
2023-05-13T08:32:06.807Z,97.96
2023-05-13T08:33:09.602Z,97.49
2023-05-13T08:34:12.405Z,98.19
2023-05-13T08:35:15.319Z,98.31
2023-05-13T08:36:18.699Z,99.01
2023-05-13T08:37:21.336Z,99.40
2023-05-13T08:38:24.006Z,99.30
2023-05-13T08:39:26.659Z,98.56
2023-05-13T08:40:29.408Z,99.33
2023-05-13T08:41:32.865Z,99.95
2023-05-13T08:42:40.062Z,99.71
2023-05-13T08:43:48.462Z,99.37
2023-05-13T08:44:52.341Z,99.32
2023-05-13T08:45:56.855Z,99.32
2023-05-13T08:47:14.855Z,99.56
2023-05-13T08:48:19.965Z,100.00
2023-05-13T08:49:22.802Z,99.14
2023-05-13T08:50:26.412Z,98.86
2023-05-13T08:51:29.106Z,99.44
2023-05-13T08:52:31.953Z,99.42
2023-05-13T08:53:39.894Z,99.16
2023-05-13T08:54:44.340Z,99.27
2023-05-13T08:55:47.582Z,99.74
2023-05-13T08:56:50.280Z,99.70
2023-05-13T08:57:53.452Z,99.72
2023-05-13T08:58:56.934Z,99.47
2023-05-13T08:59:59.694Z,99.47
2023-05-13T09:01:03.951Z,99.32
2023-05-13T09:02:07.277Z,98.85
2023-05-13T09:03:10.088Z,97.99
2023-05-13T09:04:13.072Z,97.21
2023-05-13T09:05:16.197Z,97.47
2023-05-13T09:06:19.029Z,97.39
2023-05-13T09:07:21.930Z,96.51
2023-05-13T09:08:24.609Z,95.85
2023-05-13T09:09:28.156Z,96.16
2023-05-13T09:10:30.924Z,96.00
2023-05-13T09:11:34.213Z,95.93
2023-05-13T09:12:51.958Z,95.88
2023-05-13T09:14:01.768Z,95.25
2023-05-13T09:15:10.041Z,95.81
2023-05-13T09:16:14.386Z,94.72
2023-05-13T09:17:17.804Z,94.62
2023-05-13T09:18:20.662Z,96.30
2023-05-13T09:19:25.330Z,97.22
2023-05-13T09:20:28.665Z,96.75
2023-05-13T09:21:35.578Z,95.99
2023-05-13T09:22:44.953Z,96.02
2023-05-13T09:23:47.685Z,96.45
2023-05-13T09:24:56.181Z,96.72
2023-05-13T09:25:58.867Z,97.33
2023-05-13T09:27:01.704Z,97.06
2023-05-13T09:28:07.999Z,96.29
2023-05-13T09:29:29.678Z,95.61
2023-05-13T09:30:38.845Z,95.28
2023-05-13T09:31:41.689Z,95.60
2023-05-13T09:32:44.528Z,95.85
2023-05-13T09:33:56.534Z,96.36
2023-05-13T09:35:16.855Z,95.28
2023-05-13T09:36:19.730Z,94.67
2023-05-13T09:37:24.970Z,94.69
2023-05-13T09:38:31.813Z,93.72
2023-05-13T09:39:39.945Z,91.84
2023-05-13T09:40:53.176Z,92.44
2023-05-13T09:41:56.633Z,91.20
2023-05-13T09:42:59.673Z,90.18
2023-05-13T09:44:04.278Z,89.32
2023-05-13T09:45:07.985Z,87.77
2023-05-13T09:46:10.946Z,86.70
2023-05-13T09:47:14.920Z,87.04
2023-05-13T09:48:17.841Z,88.28
2023-05-13T09:49:26.349Z,87.49
2023-05-13T09:50:28.998Z,86.70
2023-05-13T09:51:31.881Z,87.31
2023-05-13T09:52:36.480Z,87.05
2023-05-13T09:53:41.484Z,85.68
2023-05-13T09:54:44.955Z,84.68
2023-05-13T09:55:53.785Z,85.99
2023-05-13T09:57:01.533Z,86.53
2023-05-13T09:58:13.220Z,88.45
2023-05-13T09:59:15.903Z,89.13
2023-05-13T10:00:31.609Z,88.77
2023-05-13T10:01:39.567Z,85.74
2023-05-13T10:02:42.644Z,85.34
2023-05-13T10:03:46.272Z,86.18
2023-05-13T10:04:49.349Z,86.59
2023-05-13T10:05:53.810Z,86.10
2023-05-13T10:06:58.881Z,86.05
2023-05-13T10:08:02.931Z,86.31
2023-05-13T10:09:09.606Z,86.47
2023-05-13T10:10:12.778Z,86.97
2023-05-13T10:11:16.544Z,87.07
2023-05-13T10:12:21.824Z,87.31
2023-05-13T10:13:25.277Z,88.94
2023-05-13T10:14:28.435Z,89.41
2023-05-13T10:15:31.425Z,89.22
2023-05-13T10:16:34.149Z,88.95
2023-05-13T10:17:37.204Z,87.56
2023-05-13T10:18:40.224Z,87.29
2023-05-13T10:19:43.820Z,87.99
2023-05-13T10:20:47.977Z,86.62
2023-05-13T10:21:52.501Z,86.90
2023-05-13T10:22:56.094Z,87.58
2023-05-13T10:23:59.196Z,87.73
2023-05-13T10:25:05.062Z,87.02
2023-05-13T10:26:08.557Z,85.87
2023-05-13T10:27:12.310Z,86.50
2023-05-13T10:28:17.024Z,86.34
2023-05-13T10:29:20.118Z,86.54
2023-05-13T10:30:26.575Z,85.00
2023-05-13T10:31:30.584Z,84.84
2023-05-13T10:32:33.550Z,85.83
2023-05-13T10:33:36.384Z,85.55
2023-05-13T10:34:42.540Z,85.14
2023-05-13T10:35:57.436Z,85.45
2023-05-13T10:37:21.720Z,86.00
2023-05-13T10:38:53.468Z,84.84
2023-05-13T10:40:11.383Z,83.15
2023-05-13T10:41:27.076Z,82.69
2023-05-13T10:42:46.723Z,81.95
2023-05-13T10:43:58.408Z,80.78
2023-05-13T10:45:01.883Z,80.73
2023-05-13T10:46:07.458Z,81.52
2023-05-13T10:47:11.407Z,82.20
2023-05-13T10:48:15.708Z,81.71
2023-05-13T10:49:18.655Z,81.16
2023-05-13T10:50:26.070Z,81.47
2023-05-13T10:51:29.065Z,81.37
2023-05-13T10:52:48.178Z,81.96
2023-05-13T10:53:53.316Z,83.23
2023-05-13T10:55:02.891Z,82.13
2023-05-13T10:56:08.207Z,82.00
2023-05-13T10:57:11.022Z,81.46
2023-05-13T10:58:15.691Z,82.29
2023-05-13T10:59:18.521Z,82.15
2023-05-13T11:00:31.287Z,82.69
2023-05-13T11:01:43.625Z,81.30
2023-05-13T11:02:46.672Z,81.66
2023-05-13T11:03:54.863Z,82.75
2023-05-13T11:05:00.280Z,81.93
2023-05-13T11:06:18.730Z,81.34
2023-05-13T11:07:21.378Z,82.47
2023-05-13T11:08:40.611Z,83.33
2023-05-13T11:09:51.259Z,84.08
2023-05-13T11:10:57.286Z,84.22
2023-05-13T11:12:00.760Z,84.41
2023-05-13T11:13:22.246Z,84.48
2023-05-13T11:14:31.459Z,84.02
2023-05-13T11:15:49.618Z,85.04
2023-05-13T11:17:02.051Z,84.68
2023-05-13T11:18:05.785Z,85.01
2023-05-13T11:19:32.916Z,85.28
2023-05-13T11:20:51.514Z,86.52
2023-05-13T11:22:06.205Z,86.14
2023-05-13T11:23:08.991Z,85.35
2023-05-13T11:24:19.136Z,86.19
2023-05-13T11:25:27.677Z,85.77
2023-05-13T11:26:51.639Z,85.43
2023-05-13T11:27:54.444Z,83.98
2023-05-13T11:29:04.239Z,83.65
2023-05-13T11:30:26.626Z,83.38
2023-05-13T11:31:43.409Z,84.11
2023-05-13T11:32:59.328Z,83.74
2023-05-13T11:34:19.085Z,83.58
2023-05-13T11:35:27.551Z,84.49
2023-05-13T11:36:31.633Z,84.34
2023-05-13T11:37:34.839Z,83.77
2023-05-13T11:38:37.740Z,83.72
2023-05-13T11:39:41.752Z,83.18
2023-05-13T11:40:44.894Z,83.46
2023-05-13T11:41:49.823Z,83.27
2023-05-13T11:42:53.358Z,83.49
2023-05-13T11:43:59.589Z,83.19
2023-05-13T11:45:02.876Z,83.62
2023-05-13T11:46:06.800Z,83.94
2023-05-13T11:47:09.531Z,84.12
2023-05-13T11:48:23.008Z,84.18
2023-05-13T11:49:35.455Z,84.68
2023-05-13T11:50:38.233Z,84.82
2023-05-13T11:51:41.621Z,85.37
2023-05-13T11:52:44.638Z,85.43
2023-05-13T11:53:47.387Z,85.47
2023-05-13T11:54:55.107Z,85.02
2023-05-13T11:56:11.044Z,85.67
2023-05-13T11:57:28.119Z,86.67
2023-05-13T11:58:30.841Z,85.59
2023-05-13T11:59:45.266Z,84.85
2023-05-13T12:00:52.156Z,85.03
2023-05-13T12:02:02.765Z,85.49
2023-05-13T12:03:12.002Z,85.29
2023-05-13T12:04:14.891Z,85.82
2023-05-13T12:05:17.587Z,85.07
2023-05-13T12:06:20.455Z,83.69
2023-05-13T12:07:24.660Z,84.44
2023-05-13T12:08:27.420Z,85.50
2023-05-13T12:09:30.158Z,86.30
2023-05-13T12:10:32.857Z,86.42
2023-05-13T12:11:36.252Z,86.38
2023-05-13T12:12:43.294Z,85.84
2023-05-13T12:13:46.058Z,86.10
2023-05-13T12:14:53.187Z,85.96
2023-05-13T12:15:56.027Z,86.15
2023-05-13T12:16:59.126Z,85.94
2023-05-13T12:18:02.005Z,86.07
2023-05-13T12:19:06.673Z,86.40
2023-05-13T12:20:12.726Z,86.65
2023-05-13T12:21:17.457Z,86.38
2023-05-13T12:22:23.030Z,84.70
2023-05-13T12:23:26.084Z,84.74
2023-05-13T12:24:34.312Z,84.76
2023-05-13T12:25:42.226Z,85.16
2023-05-13T12:26:45.266Z,85.14
2023-05-13T12:27:54.311Z,85.03
2023-05-13T12:28:59.300Z,85.38
2023-05-13T12:30:02.969Z,85.40
2023-05-13T12:31:06.011Z,84.64
2023-05-13T12:32:09.925Z,84.76
2023-05-13T12:33:15.472Z,84.71
2023-05-13T12:34:34.280Z,84.04
2023-05-13T12:35:37.738Z,83.39
2023-05-13T12:36:40.644Z,82.96
2023-05-13T12:37:43.807Z,82.28
2023-05-13T12:39:01.293Z,82.39
2023-05-13T12:40:13.934Z,81.58
2023-05-13T12:41:18.760Z,81.39
2023-05-13T12:42:21.668Z,82.22
2023-05-13T12:43:25.094Z,80.19
2023-05-13T12:44:30.302Z,81.02
2023-05-13T12:45:33.765Z,81.60
2023-05-13T12:46:38.002Z,81.87
2023-05-13T12:47:51.426Z,82.32
2023-05-13T12:49:00.099Z,82.66
2023-05-13T12:50:06.058Z,82.98
2023-05-13T12:51:09.789Z,82.32
2023-05-13T12:52:12.826Z,80.89
2023-05-13T12:53:15.826Z,80.15
2023-05-13T12:54:19.280Z,80.46
2023-05-13T12:55:22.703Z,80.95
2023-05-13T12:56:26.396Z,80.49
2023-05-13T12:57:31.121Z,80.49
2023-05-13T12:58:35.289Z,80.85
2023-05-13T12:59:38.249Z,80.01
2023-05-13T13:00:41.313Z,79.84
2023-05-13T13:01:44.356Z,80.39
2023-05-13T13:02:47.348Z,79.48
2023-05-13T13:03:50.734Z,79.47
2023-05-13T13:04:53.874Z,79.98
2023-05-13T13:05:58.514Z,79.21
2023-05-13T13:07:01.590Z,79.04
2023-05-13T13:08:07.259Z,78.45
2023-05-13T13:09:10.207Z,78.31
2023-05-13T13:10:13.134Z,78.25
2023-05-13T13:11:19.048Z,79.04
2023-05-13T13:12:22.036Z,78.12
2023-05-13T13:13:25.038Z,77.60
2023-05-13T13:14:28.272Z,77.24
2023-05-13T13:15:31.279Z,78.13
2023-05-13T13:16:34.397Z,79.10
2023-05-13T13:17:38.082Z,79.20
2023-05-13T13:18:42.221Z,79.10
2023-05-13T13:19:45.384Z,79.19
2023-05-13T13:20:48.277Z,79.46
2023-05-13T13:21:51.330Z,80.26
2023-05-13T13:22:54.992Z,80.23
2023-05-13T13:23:58.119Z,80.12
2023-05-13T13:25:01.235Z,80.07
2023-05-13T13:26:04.255Z,80.46
2023-05-13T13:27:07.166Z,80.26
2023-05-13T13:28:10.159Z,80.29
2023-05-13T13:29:13.087Z,79.87
2023-05-13T13:30:16.319Z,80.62
2023-05-13T13:31:19.423Z,79.31
2023-05-13T13:32:22.732Z,79.24
2023-05-13T13:33:26.240Z,79.72
2023-05-13T13:34:29.298Z,80.06
2023-05-13T13:35:32.288Z,80.51
2023-05-13T13:36:35.947Z,80.22